• Join FlightAware (Why Join?)
  • Login
  • US Flag 
01:02PM EDT


 

Airport Tracker/Info


-or-


 

Live Flight TrackerFlight Track Log ✈ SWA3034 ✈ 14-Dec-2013 ✈ KLAS - KMAF

Flight Track Log - Related Links

Times and Time Zones

All times are in EST time to prevent confusion due to time zone crossing. See the SWA3034 flight status page for this flight to view local times or setup timezone preferences in your user account.

Time Position Orientation Groundspeed Altitude Reporting Facility
EST Latitude Longitude Course Direction KTS MPH feet Rate Location/Type
07:38PM 36.1086 -115.1494 107° East 151 174 3,300  Level Los Angeles Center
07:40PM 36.1344 -115.0581 71° East 226 260 6,200 2,520 Climbing Los Angeles Center
07:41PM 36.1447 -114.9686 82° East 263 303 9,900 3,000 Climbing Los Angeles Center
07:42PM 36.1214 -114.8650 106° East 316 364 12,400 2,460 Climbing Los Angeles Center
07:43PM 36.0942 -114.7750 110° East 343 395 15,000 2,700 Climbing Los Angeles Center
07:44PM 35.8656 -114.3171 107° East  Level Estimated
07:44PM 36.0517 -114.6342 110° East 363 418 18,000  Level Los Angeles Center
07:45PM 36.0131 -114.5072 111° Southeast 390 449 20,700 2,580 Climbing Los Angeles Center
07:46PM 35.9928 -114.3733 101° East 398 458 23,300 2,280 Climbing Los Angeles Center
07:47PM 35.9719 -114.2336 100° East 411 473 25,400 1,920 Climbing Los Angeles Center
07:48PM 35.9508 -114.0872 100° East 429 494 27,300 1,920 Climbing Los Angeles Center
07:49PM 35.9236 -113.9039 100° East 450 518 29,400 1,800 Climbing Los Angeles Center
07:50PM 35.8547 -113.7697 122° Southeast 481 554 31,000 1,620 Climbing Los Angeles Center
07:51PM 35.7731 -113.6394 128° Southeast 478 550 32,800 1,680 Climbing Los Angeles Center
07:52PM 35.7486 -113.4778 101° East 459 528 34,500 1,740 Climbing Los Angeles Center
07:53PM 35.7264 -113.3244 100° East 456 525 36,400 1,620 Climbing Los Angeles Center
07:54PM 35.7047 -113.1750 100° East 445 512 37,900 1,140 Climbing Los Angeles Center
07:55PM 35.6831 -113.0331 101° East 442 509 38,800 480 Climbing Los Angeles Center
07:56PM 35.6608 -112.8750 100° East 442 509 39,000 60 Climbing Los Angeles Center
07:57PM 35.6339 -112.6889 100° East 459 528 39,000  Level Los Angeles Center
07:58PM 35.6103 -112.5319 100° East 461 531 39,000  Level Los Angeles Center
07:59PM 35.5692 -112.3844 109° East 455 524 39,000  Level Los Angeles Center
08:00PM 35.5231 -112.2367 111° Southeast 462 532 39,000  Level Los Angeles Center
08:01PM 35.4850 -112.1194 112° Southeast 465 535 39,000  Level Albuquerque Center
08:02PM 35.4389 -111.9714 111° Southeast 465 535 39,000  Level Albuquerque Center
08:03PM 35.3922 -111.8219 111° Southeast 468 539 39,000  Level Albuquerque Center
08:04PM 35.3439 -111.6731 112° Southeast 471 542 39,000  Level Albuquerque Center
08:05PM 35.2994 -111.5294 111° Southeast 475 547 39,000  Level Albuquerque Center
08:06PM 35.2508 -111.3792 112° Southeast 475 547 39,000  Level Albuquerque Center
08:07PM 35.1939 -111.1983 111° Southeast 475 547 39,000  Level Albuquerque Center
08:08PM 35.1486 -111.0561 111° Southeast 476 548 39,000  Level Albuquerque Center
08:09PM 35.0931 -110.8867 112° Southeast 479 551 39,000  Level Albuquerque Center
08:10PM 35.0472 -110.7444 111° Southeast 476 548 39,000  Level Albuquerque Center
08:11PM 35.0019 -110.6025 111° Southeast 473 544 39,000  Level Albuquerque Center
08:12PM 34.9475 -110.4381 112° Southeast 470 541 39,000  Level Albuquerque Center
08:13PM 34.9031 -110.2972 111° Southeast 468 539 39,000  Level Albuquerque Center
08:14PM 34.8561 -110.1556 112° Southeast 470 541 39,000  Level Albuquerque Center
08:15PM 34.7975 -109.9883 113° Southeast 476 548 39,000  Level Albuquerque Center
08:16PM 34.7514 -109.8472 112° Southeast 473 544 39,000  Level Albuquerque Center
08:17PM 34.6961 -109.6836 112° Southeast 471 542 39,000  Level Albuquerque Center
08:18PM 34.6492 -109.5439 112° Southeast 468 539 39,000  Level Albuquerque Center
08:19PM 34.6019 -109.4067 113° Southeast 465 535 39,000  Level Albuquerque Center
08:20PM 34.5467 -109.2453 113° Southeast 464 534 39,000  Level Albuquerque Center
08:21PM 34.4994 -109.1078 113° Southeast 463 533 39,000  Level Albuquerque Center
08:22PM 34.4444 -108.9469 112° Southeast 463 533 39,000  Level Albuquerque Center
08:23PM 34.3958 -108.8103 113° Southeast 463 533 39,000  Level Albuquerque Center
08:24PM 34.3472 -108.6706 113° Southeast 467 537 39,000  Level Albuquerque Center
08:25PM 34.2911 -108.5103 113° Southeast 470 541 39,000  Level Albuquerque Center
08:27PM 34.2461 -108.3831 113° Southeast 474 545 39,000  Level Albuquerque Center
08:28PM 34.1961 -108.2364 112° Southeast 473 544 39,000  Level Albuquerque Center
08:29PM 34.1300 -108.0575 114° Southeast 484 557 39,000  Level Albuquerque Center
08:30PM 34.0783 -107.9108 113° Southeast 481 554 39,000  Level Albuquerque Center
08:31PM 34.0264 -107.7656 113° Southeast 476 548 39,100 480 Climbing Albuquerque Center
08:32PM 33.9731 -107.6206 114° Southeast 475 547 40,000 420 Climbing Albuquerque Center
08:33PM 33.9211 -107.4761 113° Southeast 474 545 40,000  Level Albuquerque Center
08:34PM 33.8686 -107.3319 114° Southeast 472 543 40,000  Level Albuquerque Center
08:35PM 33.8086 -107.1667 114° Southeast 475 547 40,000  Level Albuquerque Center
08:36PM 33.7550 -107.0225 114° Southeast 474 545 40,000  Level Albuquerque Center
08:37PM 33.7008 -106.8778 114° Southeast 474 545 40,000  Level Albuquerque Center
08:38PM 33.6475 -106.7308 114° Southeast 476 548 40,000  Level Albuquerque Center
08:39PM 33.5922 -106.5833 114° Southeast 479 551 40,000  Level Albuquerque Center
08:40PM 33.5353 -106.4300 114° Southeast 481 554 40,000  Level Albuquerque Center
08:41PM 33.4825 -106.2881 114° Southeast 484 557 40,000  Level Albuquerque Center
08:42PM 33.4278 -106.1403 114° Southeast 484 557 40,000  Level Albuquerque Center
08:43PM 33.3708 -105.9906 114° Southeast 490 564 40,000  Level Albuquerque Center
08:44PM 33.3133 -105.8406 115° Southeast 493 567 40,000  Level Albuquerque Center
08:45PM 33.2564 -105.6894 114° Southeast 496 571 40,000  Level Albuquerque Center
08:46PM 33.1856 -105.5061 115° Southeast 508 585 40,000  Level Albuquerque Center
08:47PM 33.1264 -105.3542 115° Southeast 508 585 40,000  Level Albuquerque Center
08:48PM 33.0692 -105.2022 114° Southeast 506 582 40,000  Level Albuquerque Center
08:49PM 33.0092 -105.0508 115° Southeast 507 583 40,000  Level Albuquerque Center
08:50PM 32.9467 -104.8889 115° Southeast 504 580 40,000  Level Albuquerque Center
08:51PM 32.8883 -104.7386 115° Southeast 504 580 40,000  Level Albuquerque Center
08:52PM 32.8292 -104.5894 115° Southeast 502 578 40,000  Level Albuquerque Center
08:53PM 32.7708 -104.4389 115° Southeast 504 580 40,000 -840 Level Albuquerque Center
08:54PM 32.7075 -104.2797 115° Southeast 501 577 38,300 -2,100 Descending Albuquerque Center
08:55PM 32.6481 -104.1317 115° Southeast 500 575 35,800 -2,700 Descending Albuquerque Center
08:56PM 32.5933 -103.9931 115° Southeast 499 574 32,900 -2,760 Descending Albuquerque Center
08:57PM 32.5344 -103.8467 115° Southeast 495 570 30,300 -2,400 Descending Albuquerque Center
08:58PM 32.4756 -103.7022 116° Southeast 492 566 28,000 -2,100 Descending Albuquerque Center
08:59PM 32.4197 -103.5686 116° Southeast 466 536 26,100 -1,980 Descending Albuquerque Center
09:00PM 32.3683 -103.4406 115° Southeast 443 510 24,000 -2,160 Descending Albuquerque Center
09:02PM 32.2875 -103.2450 116° Southeast 416 479 20,700 -2,040 Descending Fort Worth Center
09:03PM 32.2406 -103.1283 115° Southeast 402 463 18,800 -1,800 Descending Fort Worth Center
09:04PM 32.1928 -103.0164 117° Southeast 390 449 17,100 -2,100 Descending Fort Worth Center
09:05PM 32.1353 -102.8864 118° Southeast 379 436 14,600 -2,220 Descending Fort Worth Center
09:06PM 32.0789 -102.7972 127° Southeast 376 433 12,700 -1,920 Descending Fort Worth Center
09:07PM 32.0181 -102.7058 128° Southeast 361 415 10,700 -1,500 Descending Fort Worth Center
09:08PM 31.9633 -102.6181 126° Southeast 342 394 9,700 -1,140 Descending Fort Worth Center
09:09PM 31.9317 -102.5356 114° Southeast 289 333 8,500 -1,260 Descending Fort Worth Center
09:10PM 31.8981 -102.4314 111° Southeast 282 325 7,200 -1,020 Descending Fort Worth Center
09:11PM 31.8675 -102.3539 115° Southeast 271 312 6,500 -600 Descending Fort Worth Center
09:12PM 31.8414 -102.2900 116° Southeast 231 266 6,100 -540 Descending Fort Worth Center
09:13PM 31.8275 -102.2333 106° East 190 219 5,400 -840 Descending Fort Worth Center
09:14PM 31.8486 -102.1931 58° Northeast 160 184 4,500 -840 Descending Fort Worth Center
09:15PM 31.8858 -102.1989 352° North 145 167 3,800 -780 Descending Fort Worth Center
09:16PM 31.9236 -102.2028 355° North 138 159 3,000 -480 Descending Fort Worth Center
09:17PM 31.9508 -102.2061 354° North 113 130 2,900 -60 Descending Fort Worth Center
09:18PM 31.9531 -102.2072 337° Northwest 70 81 2,900  Level Fort Worth Center